Station Historical Data
Daily Summary for October 24, 2017 Units:  English    Metric   Both
« Previous Day
Next Day »
Daily Weekly Monthly Yearly Custom
  High: Low: Average:
Temperature: 65.9 °F 45.5 °F 54.5 °F
Dew Point: 51.1 °F 38.7 °F 45.4 °F
Humidity: 93% 40% 74%
Wind Speed: 11.5mph 0.0mph 4.3mph
Wind Gust: 11.5mph - -
Wind- - West
Pressure: 30.02 in 29.91 in -
Precipitation: 0.00 in    
Historical Graphs
 
 
Tabular Data for October 24, 2017
Time Temperature Dew Point Pressure Wind Wind Speed Wind Gust Humidity Rainfall Rate (Hourly) Conditions
00:03 54.4 °F 50.6 °F 29.97 in West 9.2 mph 9.2 mph 87% 0.00 in CLR
00:08 54.3 °F 50.8 °F 29.97 in West 9.2 mph 9.2 mph 88% 0.00 in CLR
00:13 54.1 °F 50.6 °F 29.97 in West 9.2 mph 9.2 mph 88% 0.00 in CLR
00:18 54.0 °F 50.5 °F 29.97 in West 9.2 mph 9.2 mph 88% 0.00 in CLR
00:19 54.0 °F 50.5 °F 29.97 in West 9.2 mph 9.2 mph 88% 0.00 in CLR
00:24 54.0 °F 50.8 °F 29.97 in West 9.2 mph 9.2 mph 89% 0.00 in CLR
00:29 54.0 °F 50.8 °F 29.98 in West 9.2 mph 9.2 mph 89% 0.00 in CLR
00:30 51.2 °F 47.2 °F 29.94 in Calm     86% 0.00 in
00:34 54.0 °F 50.8 °F 29.97 in West 9.2 mph 9.2 mph 89% 0.00 in CLR
00:39 54.0 °F 50.8 °F 29.97 in West 9.2 mph 9.2 mph 89% 0.00 in CLR
00:44 54.0 °F 50.8 °F 29.97 in West 9.2 mph 9.2 mph 89% 0.00 in CLR
00:49 53.9 °F 50.7 °F 29.97 in West 9.2 mph 9.2 mph 89% 0.00 in CLR
00:54 53.9 °F 50.7 °F 29.97 in West 9.2 mph 9.2 mph 89% 0.00 in CLR
00:59 53.9 °F 50.7 °F 29.97 in West 9.2 mph 9.2 mph 89% 0.00 in CLR
01:04 53.8 °F 50.6 °F 29.97 in WNW 6.9 mph 6.9 mph 89% 0.00 in CLR
01:09 53.7 °F 50.5 °F 29.96 in WNW 6.9 mph 6.9 mph 89% 0.00 in CLR
01:14 53.6 °F 50.4 °F 29.96 in WNW 6.9 mph 6.9 mph 89% 0.00 in CLR
01:19 53.5 °F 50.3 °F 29.96 in WNW 6.9 mph 6.9 mph 89% 0.00 in CLR
01:24 53.5 °F 50.3 °F 29.95 in WNW 6.9 mph 6.9 mph 89% 0.00 in CLR
01:29 53.3 °F 50.4 °F 29.96 in WNW 6.9 mph 6.9 mph 90% 0.00 in CLR
01:34 53.2 °F 50.3 °F 29.96 in WNW 6.9 mph 6.9 mph 90% 0.00 in CLR
01:39 53.0 °F 50.1 °F 29.96 in WNW 6.9 mph 6.9 mph 90% 0.00 in CLR
01:44 52.9 °F 50.0 °F 29.96 in WNW 6.9 mph 6.9 mph 90% 0.00 in CLR
01:49 52.8 °F 49.9 °F 29.96 in WNW 6.9 mph 6.9 mph 90% 0.00 in CLR
01:53 52.8 °F 50.2 °F 29.97 in WNW 6.9 mph 6.9 mph 91% 0.00 in CLR
01:58 52.8 °F 50.2 °F 29.97 in WNW 6.9 mph 6.9 mph 91% 0.00 in CLR
02:03 52.7 °F 50.1 °F 29.97 in WNW 5.8 mph 5.8 mph 91% 0.00 in CLR
02:08 52.6 °F 50.0 °F 29.96 in WNW 5.8 mph 5.8 mph 91% 0.00 in CLR
02:13 52.5 °F 49.9 °F 29.96 in WNW 5.8 mph 5.8 mph 91% 0.00 in CLR
02:18 52.4 °F 49.8 °F 29.96 in WNW 5.8 mph 5.8 mph 91% 0.00 in CLR
02:23 52.4 °F 49.8 °F 29.96 in WNW 5.8 mph 5.8 mph 91% 0.00 in CLR
02:28 52.4 °F 49.8 °F 29.96 in WNW 5.8 mph 5.8 mph 91% 0.00 in CLR
02:33 52.5 °F 50.2 °F 29.96 in WNW 5.8 mph 5.8 mph 92% 0.00 in CLR
02:38 52.6 °F 50.3 °F 29.96 in WNW 5.8 mph 5.8 mph 92% 0.00 in CLR
02:43 52.6 °F 50.3 °F 29.96 in WNW 5.8 mph 5.8 mph 92% 0.00 in CLR
02:49 52.6 °F 50.3 °F 29.96 in WNW 5.8 mph 5.8 mph 92% 0.00 in CLR
02:54 52.6 °F 50.3 °F 29.96 in WNW 5.8 mph 5.8 mph 92% 0.00 in CLR
02:59 52.6 °F 50.0 °F 29.96 in WNW 5.8 mph 5.8 mph 91% 0.00 in CLR
03:04 52.6 °F 50.0 °F 29.96 in WNW 6.9 mph 6.9 mph 91% 0.00 in CLR
03:09 52.5 °F 49.9 °F 29.95 in WNW 6.9 mph 6.9 mph 91% 0.00 in CLR
03:14 52.5 °F 49.9 °F 29.95 in WNW 6.9 mph 6.9 mph 91% 0.00 in CLR
03:19 52.4 °F 49.8 °F 29.95 in WNW 6.9 mph 6.9 mph 91% 0.00 in CLR
03:24 52.4 °F 49.8 °F 29.95 in WNW 6.9 mph 6.9 mph 91% 0.00 in CLR
03:29 52.3 °F 49.8 °F 29.95 in WNW 6.9 mph 6.9 mph 91% 0.00 in CLR
03:34 52.2 °F 49.7 °F 29.95 in WNW 6.9 mph 6.9 mph 91% 0.00 in CLR
03:39 52.0 °F 49.5 °F 29.95 in WNW 6.9 mph 6.9 mph 91% 0.00 in CLR
03:49 51.6 °F 49.1 °F 29.95 in WNW 6.9 mph 6.9 mph 91% 0.00 in CLR
03:54 51.5 °F 49.0 °F 29.95 in WNW 6.9 mph 6.9 mph 91% 0.00 in CLR
03:59 51.3 °F 48.8 °F 29.94 in WNW 6.9 mph 6.9 mph 91% 0.00 in CLR
04:04 51.2 °F 49.0 °F 29.95 in West 10.4 mph 10.4 mph 92% 0.00 in CLR
04:09 51.0 °F 48.8 °F 29.94 in West 10.4 mph 10.4 mph 92% 0.00 in CLR
04:14 50.9 °F 48.7 °F 29.94 in West 10.4 mph 10.4 mph 92% 0.00 in CLR
04:19 50.8 °F 48.6 °F 29.94 in West 10.4 mph 10.4 mph 92% 0.00 in CLR
04:24 50.6 °F 48.4 °F 29.94 in West 10.4 mph 10.4 mph 92% 0.00 in CLR
04:29 50.5 °F 48.3 °F 29.94 in West 10.4 mph 10.4 mph 92% 0.00 in CLR
04:34 50.4 °F 48.2 °F 29.94 in West 10.4 mph 10.4 mph 92% 0.00 in CLR
04:39 50.4 °F 48.2 °F 29.93 in West 10.4 mph 10.4 mph 92% 0.00 in CLR
04:44 50.3 °F 48.1 °F 29.93 in West 10.4 mph 10.4 mph 92% 0.00 in CLR
04:49 50.1 °F 47.9 °F 29.93 in West 10.4 mph 10.4 mph 92% 0.00 in CLR
04:54 49.9 °F 47.7 °F 29.93 in West 10.4 mph 10.4 mph 92% 0.00 in CLR
04:59 49.8 °F 47.6 °F 29.93 in West 10.4 mph 10.4 mph 92% 0.00 in CLR
05:04 49.6 °F 47.4 °F 29.93 in West 8.1 mph 8.1 mph 92% 0.00 in CLR
05:09 49.5 °F 47.3 °F 29.92 in West 8.1 mph 8.1 mph 92% 0.00 in CLR
05:14 49.4 °F 47.2 °F 29.92 in West 8.1 mph 8.1 mph 92% 0.00 in CLR
05:19 49.4 °F 47.2 °F 29.92 in West 8.1 mph 8.1 mph 92% 0.00 in CLR
05:29 49.3 °F 47.1 °F 29.92 in West 8.1 mph 8.1 mph 92% 0.00 in CLR
05:35 49.3 °F 47.1 °F 29.92 in West 8.1 mph 8.1 mph 92% 0.00 in CLR
05:40 49.2 °F 47.0 °F 29.91 in West 8.0 mph 8.0 mph 92% 0.00 in CLR
05:45 49.1 °F 46.9 °F 29.91 in West 8.0 mph 8.0 mph 92% 0.00 in CLR
05:50 49.0 °F 46.8 °F 29.92 in West 8.0 mph 8.0 mph 92% 0.00 in CLR
05:55 49.0 °F 46.8 °F 29.92 in West 8.1 mph 8.1 mph 92% 0.00 in CLR
06:00 49.0 °F 47.1 °F 29.92 in West 8.1 mph 8.1 mph 93% 0.00 in CLR
06:05 48.9 °F 47.0 °F 29.92 in West 8.1 mph 8.1 mph 93% 0.00 in CLR
06:10 48.9 °F 47.0 °F 29.92 in West 8.1 mph 8.1 mph 93% 0.00 in CLR
06:15 48.9 °F 47.0 °F 29.92 in West 8.1 mph 8.1 mph 93% 0.00 in CLR
06:20 48.9 °F 47.0 °F 29.92 in West 8.1 mph 8.1 mph 93% 0.00 in CLR
06:25 49.0 °F 47.1 °F 29.92 in West 8.1 mph 8.1 mph 93% 0.00 in CLR
06:35 49.0 °F 47.1 °F 29.92 in West 8.1 mph 8.1 mph 93% 0.00 in CLR
06:40 49.1 °F 47.2 °F 29.92 in West 8.1 mph 8.1 mph 93% 0.00 in CLR
06:45 49.0 °F 47.1 °F 29.92 in West 8.1 mph 8.1 mph 93% 0.00 in CLR
06:50 49.0 °F 47.1 °F 29.92 in West 8.1 mph 8.1 mph 93% 0.00 in CLR
06:55 48.9 °F 47.0 °F 29.92 in West 8.1 mph 8.1 mph 93% 0.00 in CLR
07:00 48.8 °F 46.6 °F 29.92 in West 8.1 mph 8.1 mph 92% 0.00 in CLR
07:05 48.8 °F 46.6 °F 29.92 in SSW 4.6 mph 4.6 mph 92% 0.00 in CLR
07:10 48.9 °F 46.7 °F 29.92 in SSW 4.6 mph 4.6 mph 92% 0.00 in CLR
07:15 49.1 °F 46.9 °F 29.92 in SSW 4.6 mph 4.6 mph 92% 0.00 in CLR
07:20 49.3 °F 47.1 °F 29.92 in SSW 4.6 mph 4.6 mph 92% 0.00 in CLR
07:25 49.6 °F 46.8 °F 29.92 in SSW 4.6 mph 4.6 mph 90% 0.00 in CLR
07:30 50.0 °F 46.9 °F 29.92 in SSW 4.6 mph 4.6 mph 89% 0.00 in CLR
07:35 50.2 °F 46.8 °F 29.92 in SSW 4.6 mph 4.6 mph 88% 0.00 in CLR
07:40 50.4 °F 47.0 °F 29.93 in SSW 4.6 mph 4.6 mph 88% 0.00 in CLR
07:41 50.4 °F 47.0 °F 29.93 in SSW 4.6 mph 4.6 mph 88% 0.00 in CLR
07:46 50.5 °F 46.8 °F 29.93 in SSW 4.6 mph 4.6 mph 87% 0.00 in CLR
07:51 50.7 °F 46.7 °F 29.93 in SSW 4.6 mph 4.6 mph 86% 0.00 in CLR
07:56 50.9 °F 46.9 °F 29.93 in SSW 4.6 mph 4.6 mph 86% 0.00 in CLR
08:01 50.9 °F 46.9 °F 29.93 in WSW 4.6 mph 4.6 mph 86% 0.00 in CLR
08:06 50.9 °F 46.9 °F 29.93 in WSW 4.6 mph 4.6 mph 86% 0.00 in CLR
08:11 50.8 °F 46.8 °F 29.93 in WSW 4.6 mph 4.6 mph 86% 0.00 in CLR
08:16 50.8 °F 46.8 °F 29.94 in WSW 4.6 mph 4.6 mph 86% 0.00 in CLR
08:21 50.9 °F 46.9 °F 29.94 in WSW 4.6 mph 4.6 mph 86% 0.00 in CLR
08:26 51.1 °F 47.1 °F 29.94 in WSW 4.6 mph 4.6 mph 86% 0.00 in CLR
08:32 51.3 °F 46.9 °F 29.94 in WSW 4.6 mph 4.6 mph 85% 0.00 in CLR
08:37 51.6 °F 47.2 °F 29.94 in WSW 4.6 mph 4.6 mph 85% 0.00 in CLR
08:42 51.9 °F 47.2 °F 29.94 in WSW 4.6 mph 4.6 mph 84% 0.00 in CLR
08:47 52.1 °F 47.4 °F 29.95 in WSW 4.6 mph 4.6 mph 84% 0.00 in CLR
08:52 52.3 °F 47.6 °F 29.95 in WSW 4.6 mph 4.6 mph 84% 0.00 in CLR
08:57 52.5 °F 47.8 °F 29.95 in WSW 4.6 mph 4.6 mph 84% 0.00 in CLR
09:02 52.8 °F 48.1 °F 29.95 in West 10.4 mph 10.4 mph 84% 0.00 in CLR
09:08 53.0 °F 48.0 °F 29.96 in West 10.4 mph 10.4 mph 83% 0.00 in CLR
09:12 53.1 °F 47.7 °F 29.96 in West 10.4 mph 10.4 mph 82% 0.00 in CLR
09:17 53.3 °F 47.9 °F 29.96 in West 10.4 mph 10.4 mph 82% 0.00 in CLR
09:22 53.5 °F 48.1 °F 29.96 in West 10.4 mph 10.4 mph 82% 0.00 in CLR
09:27 53.7 °F 48.0 °F 29.96 in West 10.4 mph 10.4 mph 81% 0.00 in CLR
09:32 53.9 °F 48.2 °F 29.96 in West 10.4 mph 10.4 mph 81% 0.00 in CLR
09:38 53.9 °F 48.2 °F 29.97 in West 10.4 mph 10.4 mph 81% 0.00 in CLR
09:43 54.1 °F 48.1 °F 29.97 in West 10.4 mph 10.4 mph 80% 0.00 in CLR
09:48 54.2 °F 48.5 °F 29.97 in West 10.4 mph 10.4 mph 81% 0.00 in CLR
09:53 54.5 °F 48.8 °F 29.97 in West 10.4 mph 10.4 mph 81% 0.00 in CLR
09:58 54.8 °F 48.7 °F 29.97 in West 10.4 mph 10.4 mph 80% 0.00 in CLR
10:03 55.2 °F 49.1 °F 29.97 in WNW 11.5 mph 11.5 mph 80% 0.00 in CLR
10:08 55.3 °F 48.6 °F 29.97 in WNW 11.5 mph 11.5 mph 78% 0.00 in CLR
10:13 55.4 °F 48.7 °F 29.97 in WNW 11.5 mph 11.5 mph 78% 0.00 in CLR
10:18 55.6 °F 49.2 °F 29.97 in WNW 11.5 mph 11.5 mph 79% 0.00 in CLR
10:23 55.8 °F 48.7 °F 29.97 in WNW 11.5 mph 11.5 mph 77% 0.00 in CLR
10:28 56.0 °F 49.2 °F 29.97 in WNW 11.5 mph 11.5 mph 78% 0.00 in CLR
10:33 56.2 °F 49.1 °F 29.97 in WNW 11.5 mph 11.5 mph 77% 0.00 in CLR
10:38 56.8 °F 50.0 °F 29.97 in WNW 11.5 mph 11.5 mph 78% 0.00 in CLR
10:43 57.7 °F 50.2 °F 29.97 in WNW 11.5 mph 11.5 mph 76% 0.00 in CLR
10:48 58.5 °F 50.6 °F 29.97 in WNW 11.5 mph 11.5 mph 75% 0.00 in CLR
10:53 58.8 °F 50.2 °F 29.97 in WNW 11.5 mph 11.5 mph 73% 0.00 in CLR
10:58 59.3 °F 50.3 °F 29.97 in WNW 11.5 mph 11.5 mph 72% 0.00 in CLR
11:03 60.0 °F 50.6 °F 29.97 in WNW 11.5 mph 11.5 mph 71% 0.00 in CLR
11:09 60.5 °F 50.3 °F 29.97 in WNW 11.5 mph 11.5 mph 69% 0.00 in CLR
11:14 60.8 °F 51.0 °F 29.97 in WNW 10.4 mph 10.4 mph 70% 0.00 in CLR
11:19 61.2 °F 50.9 °F 29.97 in WNW 10.4 mph 10.4 mph 69% 0.00 in CLR
11:24 61.5 °F 50.0 °F 29.97 in WNW 10.4 mph 10.4 mph 66% 0.00 in CLR
11:29 61.8 °F 51.1 °F 29.97 in NNW 10.4 mph 10.4 mph 68% 0.00 in CLR
11:34 62.1 °F 50.6 °F 29.97 in SSW 1.2 mph 1.2 mph 66% 0.00 in CLR
11:39 62.3 °F 50.4 °F 29.97 in West 2.3 mph   65% 0.00 in CLR
11:44 62.4 °F 50.5 °F 29.97 in SSE 2.3 mph 2.3 mph 65% 0.00 in CLR
11:49 62.5 °F 50.2 °F 29.97 in South 2.3 mph 2.3 mph 64% 0.00 in CLR
11:54 62.7 °F 49.9 °F 29.97 in West 3.1 mph   63% 0.00 in CLR
11:59 62.5 °F 50.2 °F 29.97 in NW 1.2 mph   64% 0.00 in CLR
12:04 62.4 °F 48.8 °F 29.97 in SW 2.3 mph 2.3 mph 61% 0.00 in SCT
12:09 62.1 °F 48.9 °F 29.97 in WNW 1.2 mph 1.2 mph 62% 0.00 in SCT
12:14 62.3 °F 48.7 °F 29.96 in West 1.2 mph 1.2 mph 61% 0.00 in SCT
12:19 62.5 °F 49.7 °F 29.96 in NW 1.2 mph   63% 0.00 in SCT
12:24 62.8 °F 49.6 °F 29.96 in South 3.5 mph 3.5 mph 62% 0.00 in SCT
12:29 62.8 °F 49.6 °F 29.96 in SSW 3.1 mph 3.1 mph 62% 0.00 in SCT
12:34 62.9 °F 48.3 °F 29.95 in SSW 2.0 mph 2.0 mph 59% 0.00 in SCT
12:39 62.6 °F 46.2 °F 29.95 in SW 3.5 mph 3.5 mph 55% 0.00 in SCT
12:45 62.7 °F 47.2 °F 29.95 in Calm   5.0 mph 57% 0.00 in SCT
12:50 62.9 °F 47.8 °F 29.95 in Calm   5.0 mph 58% 0.00 in SCT
12:55 63.2 °F 45.8 °F 29.95 in WNW 1.0 mph 6.0 mph 53% 0.00 in SCT
13:00 62.6 °F 43.7 °F 29.95 in WNW 1.0 mph 6.0 mph 50% 0.00 in SCT
13:05 62.2 °F 42.8 °F 29.95 in West 1.0 mph 5.0 mph 49% 0.00 in SCT
13:10 62.1 °F 44.3 °F 29.95 in WNW 1.0 mph 2.0 mph 52% 0.00 in SCT
13:15 62.2 °F 44.3 °F 29.95 in WNW 1.0 mph 3.0 mph 52% 0.00 in SCT
13:20 62.5 °F 45.6 °F 29.95 in Calm   3.0 mph 54% 0.00 in SCT
13:25 63.0 °F 43.6 °F 29.95 in WNW 1.0 mph 5.0 mph 49% 0.00 in SCT
13:30 63.3 °F 43.8 °F 29.95 in NW 3.5 mph 3.5 mph 49% 0.00 in SCT
13:35 63.4 °F 43.4 °F 29.95 in West 1.0 mph 5.0 mph 48% 0.00 in SCT
13:40 63.4 °F 42.2 °F 29.95 in WNW 1.0 mph 5.0 mph 46% 0.00 in SCT
13:45 63.6 °F 43.0 °F 29.94 in Calm   3.0 mph 47% 0.00 in SCT
13:50 63.9 °F 44.4 °F 29.94 in NW 2.3 mph 2.3 mph 49% 0.00 in SCT
13:55 64.2 °F 41.8 °F 29.94 in WSW 2.0 mph 5.0 mph 44% 0.00 in SCT
14:00 64.3 °F 43.0 °F 29.93 in West 1.0 mph 3.0 mph 46% 0.00 in SCT
14:05 64.8 °F 42.4 °F 29.93 in WNW 1.2 mph 1.2 mph 44% 0.00 in SCT
14:10 65.3 °F 45.1 °F 29.93 in SE 1.2 mph   48% 0.00 in SCT
14:15 65.8 °F 42.1 °F 29.93 in West 2.0 mph 7.0 mph 42% 0.00 in SCT
14:20 65.9 °F 42.8 °F 29.93 in West 1.0 mph 3.0 mph 43% 0.00 in SCT
14:25 65.2 °F 40.3 °F 29.93 in West 1.0 mph 3.0 mph 40% 0.00 in SCT
14:30 64.7 °F 41.0 °F 29.92 in WNW 1.0 mph 3.0 mph 42% 0.00 in SCT
14:35 64.1 °F 41.1 °F 29.92 in WNW 2.3 mph 2.3 mph 43% 0.00 in SCT
14:40 64.2 °F 42.4 °F 29.92 in WSW 4.6 mph 4.6 mph 45% 0.00 in SCT
14:46 64.2 °F 42.4 °F 29.92 in WNW 2.3 mph 2.3 mph 45% 0.00 in SCT
14:51 64.3 °F 43.6 °F 29.92 in WSW 1.2 mph 1.2 mph 47% 0.00 in SCT
14:56 64.4 °F 42.6 °F 29.92 in North 4.6 mph 4.6 mph 45% 0.00 in SCT
15:01 64.3 °F 43.1 °F 29.92 in WNW 1.2 mph 1.2 mph 46% 0.00 in SCT
15:06 64.1 °F 42.9 °F 29.92 in NW 2.0 mph 2.0 mph 46% 0.00 in SCT
15:11 63.5 °F 42.9 °F 29.91 in WNW 2.0 mph 2.0 mph 47% 0.00 in SCT
15:16 62.6 °F 42.1 °F 29.91 in West 2.3 mph 2.3 mph 47% 0.00 in SCT
15:21 62.5 °F 43.1 °F 29.91 in West 2.3 mph 2.3 mph 49% 0.00 in SCT
15:26 62.3 °F 41.8 °F 29.91 in WNW 1.2 mph 1.2 mph 47% 0.00 in SCT
15:32 62.3 °F 42.9 °F 29.91 in WNW 1.2 mph 1.2 mph 49% 0.00 in SCT
15:37 62.1 °F 41.6 °F 29.91 in Calm     47% 0.00 in SCT
15:42 61.7 °F 40.7 °F 29.91 in West 1.2 mph 1.2 mph 46% 0.00 in SCT
15:47 61.9 °F 40.3 °F 29.91 in NE 4.6 mph 4.6 mph 45% 0.00 in SCT
15:52 62.1 °F 41.1 °F 29.91 in WNW 2.3 mph 2.3 mph 46% 0.00 in SCT
15:57 62.2 °F 40.6 °F 29.91 in WNW 3.5 mph 3.5 mph 45% 0.00 in SCT
16:02 62.3 °F 40.7 °F 29.91 in West 1.2 mph 1.2 mph 45% 0.00 in FEW
16:07 62.3 °F 40.7 °F 29.91 in West 2.3 mph   45% 0.00 in FEW
16:12 62.3 °F 40.7 °F 29.92 in WNW 1.0 mph 1.4 mph 45% 0.00 in FEW
16:17 62.2 °F 40.6 °F 29.92 in West 2.3 mph   45% 0.00 in FEW
16:23 62.1 °F 42.2 °F 29.92 in ESE 2.3 mph 2.3 mph 48% 0.00 in FEW
16:28 62.0 °F 41.0 °F 29.92 in SW 1.2 mph 1.2 mph 46% 0.00 in FEW
16:33 61.8 °F 41.3 °F 29.92 in WSW 2.3 mph 2.3 mph 47% 0.00 in FEW
16:38 61.6 °F 41.2 °F 29.92 in WNW 2.3 mph 2.3 mph 47% 0.00 in FEW
16:43 61.6 °F 41.7 °F 29.92 in WNW 3.5 mph 3.5 mph 48% 0.00 in FEW
16:48 61.5 °F 40.5 °F 29.92 in WSW 1.2 mph 1.2 mph 46% 0.00 in FEW
16:53 61.5 °F 40.5 °F 29.92 in SSW 2.3 mph 2.3 mph 46% 0.00 in FEW
16:58 61.4 °F 41.0 °F 29.92 in SW 4.6 mph 4.6 mph 47% 0.00 in FEW
17:03 61.2 °F 40.8 °F 29.93 in East 1.2 mph 1.2 mph 47% 0.00 in FEW
17:08 60.9 °F 40.0 °F 29.93 in WSW 2.0 mph 2.0 mph 46% 0.00 in FEW
17:14 60.4 °F 41.1 °F 29.93 in West 2.3 mph   49% 0.00 in FEW
17:19 59.8 °F 40.6 °F 29.93 in WNW 1.2 mph 1.2 mph 49% 0.00 in FEW
17:24 59.3 °F 41.7 °F 29.93 in NW 1.2 mph   52% 0.00 in FEW
17:29 59.1 °F 42.0 °F 29.93 in Calm     53% 0.00 in FEW
17:34 59.0 °F 42.4 °F 29.93 in Calm     54% 0.00 in FEW
17:39 58.7 °F 42.6 °F 29.93 in Calm     55% 0.00 in FEW
17:44 58.6 °F 43.4 °F 29.93 in WNW 1.0 mph 1.0 mph 57% 0.00 in FEW
17:49 58.8 °F 41.2 °F 29.94 in WNW 2.3 mph 2.3 mph 52% 0.00 in FEW
17:54 58.9 °F 39.8 °F 29.94 in SW 1.2 mph 1.2 mph 49% 0.00 in FEW
17:59 58.8 °F 40.2 °F 29.94 in NNW 1.2 mph   50% 0.00 in FEW
18:04 58.6 °F 39.5 °F 29.94 in WNW 2.3 mph 2.3 mph 49% 0.00 in SCT
18:09 58.4 °F 38.8 °F 29.95 in SW 2.0 mph 2.0 mph 48% 0.00 in SCT
18:15 58.3 °F 39.2 °F 29.95 in West 1.0 mph 2.0 mph 49% 0.00 in SCT
18:20 58.0 °F 39.5 °F 29.95 in Calm   1.0 mph 50% 0.00 in SCT
18:25 57.7 °F 38.7 °F 29.95 in Calm   1.0 mph 49% 0.00 in SCT
18:30 57.5 °F 39.0 °F 29.95 in Calm   2.0 mph 50% 0.00 in SCT
18:35 57.2 °F 40.6 °F 29.95 in Calm   1.0 mph 54% 0.00 in SCT
18:40 56.7 °F 40.7 °F 29.96 in Calm   2.0 mph 55% 0.00 in SCT
18:45 56.2 °F 40.2 °F 29.96 in Calm   1.0 mph 55% 0.00 in SCT
18:50 55.7 °F 40.7 °F 29.96 in WNW 1.0 mph   57% 0.00 in SCT
18:55 55.3 °F 40.8 °F 29.96 in Calm   1.0 mph 58% 0.00 in SCT
19:00 54.9 °F 40.9 °F 29.97 in Calm     59% 0.00 in SCT
19:05 54.5 °F 41.3 °F 29.97 in Calm   1.0 mph 61% 0.00 in SCT
19:10 54.1 °F 41.4 °F 29.97 in Calm     62% 0.00 in SCT
19:15 53.8 °F 41.1 °F 29.97 in Calm     62% 0.00 in SCT
19:20 53.5 °F 40.8 °F 29.97 in Calm     62% 0.00 in SCT
19:25 53.3 °F 41.4 °F 29.98 in Calm     64% 0.00 in SCT
19:30 52.8 °F 41.4 °F 29.97 in Calm     65% 0.00 in SCT
19:35 52.3 °F 40.9 °F 29.98 in Calm     65% 0.00 in SCT
19:40 51.9 °F 41.3 °F 29.98 in Calm     67% 0.00 in SCT
19:45 51.6 °F 41.4 °F 29.97 in Calm     68% 0.00 in SCT
19:50 51.3 °F 41.5 °F 29.98 in Calm     69% 0.00 in SCT
19:55 51.0 °F 41.6 °F 29.98 in Calm     70% 0.00 in SCT
20:00 50.7 °F 41.3 °F 29.98 in Calm     70% 0.00 in SCT
20:05 50.3 °F 41.3 °F 29.98 in Calm     71% 0.00 in BKN
20:10 50.2 °F 41.5 °F 29.98 in Calm     72% 0.00 in BKN
20:15 49.9 °F 41.6 °F 29.98 in Calm     73% 0.00 in BKN
20:20 49.6 °F 41.0 °F 29.98 in Calm     72% 0.00 in BKN
20:25 49.4 °F 41.5 °F 29.98 in Calm     74% 0.00 in BKN
20:30 49.2 °F 41.6 °F 29.98 in Calm     75% 0.00 in BKN
20:35 49.0 °F 41.8 °F 29.98 in Calm     76% 0.00 in BKN
20:40 48.8 °F 41.5 °F 29.98 in Calm     76% 0.00 in BKN
20:45 48.5 °F 41.6 °F 29.99 in Calm     77% 0.00 in BKN
20:50 48.3 °F 41.4 °F 29.99 in Calm     77% 0.00 in BKN
20:55 48.1 °F 41.6 °F 29.99 in Calm     78% 0.00 in BKN
21:00 48.0 °F 41.4 °F 29.99 in Calm     78% 0.00 in BKN
21:05 47.8 °F 41.6 °F 29.99 in Calm     79% 0.00 in FEW
21:10 47.7 °F 41.8 °F 29.99 in Calm     80% 0.00 in FEW
21:15 47.5 °F 41.6 °F 29.99 in Calm     80% 0.00 in FEW
21:20 47.4 °F 41.5 °F 29.99 in Calm     80% 0.00 in FEW
21:25 47.4 °F 41.8 °F 29.99 in Calm     81% 0.00 in FEW
21:30 47.3 °F 42.1 °F 30.00 in Calm     82% 0.00 in FEW
21:35 47.1 °F 41.6 °F 30.00 in Calm     81% 0.00 in FEW
21:40 46.8 °F 41.0 °F 30.00 in Calm     80% 0.00 in FEW
21:45 46.7 °F 41.2 °F 30.00 in Calm     81% 0.00 in FEW
21:50 46.6 °F 41.1 °F 30.00 in Calm     81% 0.00 in FEW
21:52 46.5 °F 41.0 °F 30.00 in Calm     81% 0.00 in FEW
21:57 46.5 °F 41.3 °F 30.00 in Calm     82% 0.00 in FEW
22:02 46.4 °F 40.9 °F 30.01 in Calm     81% 0.00 in FEW
22:07 46.3 °F 40.8 °F 30.01 in Calm     81% 0.00 in FEW
22:12 46.2 °F 40.7 °F 30.01 in Calm     81% 0.00 in FEW
22:17 46.1 °F 40.6 °F 30.01 in Calm     81% 0.00 in FEW
22:23 46.0 °F 40.8 °F 30.00 in Calm     82% 0.00 in FEW
22:28 45.9 °F 40.7 °F 30.00 in Calm     82% 0.00 in FEW
22:33 45.8 °F 40.9 °F 30.01 in Calm     83% 0.00 in FEW
22:38 45.7 °F 41.1 °F 30.01 in Calm     84% 0.00 in FEW
22:43 45.7 °F 41.1 °F 30.01 in Calm     84% 0.00 in FEW
22:48 45.6 °F 41.0 °F 30.01 in Calm     84% 0.00 in FEW
22:53 45.5 °F 40.9 °F 30.01 in Calm     84% 0.00 in FEW
22:58 45.5 °F 41.3 °F 30.01 in Calm     85% 0.00 in FEW
23:03 45.5 °F 41.3 °F 30.01 in Calm     85% 0.00 in FEW
23:09 45.7 °F 41.4 °F 30.02 in Calm     85% 0.00 in FEW
23:13 45.9 °F 41.6 °F 30.01 in Calm     85% 0.00 in FEW
23:19 46.0 °F 41.7 °F 30.01 in Calm     85% 0.00 in FEW
23:24 46.3 °F 42.0 °F 30.02 in Calm     85% 0.00 in FEW
23:29 46.5 °F 42.2 °F 30.02 in Calm     85% 0.00 in FEW
23:34 46.8 °F 42.5 °F 30.02 in Calm     85% 0.00 in FEW
23:39 47.0 °F 42.7 °F 30.02 in Calm     85% 0.00 in FEW
23:44 47.2 °F 42.6 °F 30.02 in Calm     84% 0.00 in FEW
23:49 47.3 °F 42.4 °F 30.02 in Calm     83% 0.00 in FEW
23:54 47.3 °F 42.4 °F 30.02 in Calm     83% 0.00 in FEW
23:59 47.2 °F 42.0 °F 30.02 in Calm     82% 0.00 in FEW
Piedmont Bend
Compliments of Weather Underground - 2 mb